Airfield :
LOGIN :

Register | Disclaimer

   EN    FR    IT 

 










Legend :    VFR   Marginal VFR   IFR   Intensive IFR   Very Intensive IFR
Visi :
Ceiling :
>= 8 km
>= 3000ft
5 to 8 km
1000 to 3000 ft
1500m to 5 km
500 to 1000 ft
800 to 1500m
200 to 500 ft
< 800m
< 200 ft
Symbols :   Thunderstorms  Fog  Heavy snow  Heavy precipitations  Wind > 20 kt
SIGMETs :     Misc.  Thunderstorms  Icing  Turbulence  Mountain Waves  Volcanic Ashes






- Airport Elevation : 0 ft


ENSL - Sleipner A Platform

CURRENT METAR :
  • 182250Z AUTO 29021KT 9999NDV FEW034/// BKN170/// 05/02 Q0997 W04/S5

EXPIRED METARs :
  • 182220Z AUTO 27021KT 9999NDV FEW031/// 06/00 Q0997 W04/S5
  • 182150Z AUTO 28020KT 9999NDV BKN027/// 06/00 Q0997 W04/S5
  • 182120Z AUTO 26020KT 9999NDV -RA FEW029/// BKN045/// 06/01 Q0997 W04/S5
  • 182050Z AUTO 27022KT 9999NDV FEW028/// 06/00 Q0997 W04/S5
  • 182020Z AUTO 27022KT 9999NDV SCT029/// 06/M01 Q0997 W04/S5

Expired Forecast.



MET'MAP, your aeronautical weather chart ! - Copyright ORBIFLY December 2007 - Disclaimer

ORBIFLY MET'MAP TEAM :

Programming & Development : Alexandra Zaïnal
Concept & original design : Baudouin d'Aumeries
Assistance for programming : Marc-Olivier Méhu
Technical & hardware support : Manuel Goepfert

Contact : metmap@orbifly.com




SOURCES & CREDITS :

   NOAA